Time;durP1;ratioP1;P1;durP2;ratioP2;P2;SDS_P1;SDS_P2;PMS_P1;PMS_P2;Temp;Humidity;BMP_temperature;BMP_pressure;BME280_temperature;BME280_humidity;BME280_pressure;Samples;Min_cycle;Max_cycle;Signal;HPM_P1;HPM_P2
2021/06/01 00:01:52;;;;;;;11.70;9.20;;;8.80;99.90;;;;;;5044845;28;20491;-73
2021/06/01 00:04:19;;;;;;;10.45;9.75;;;8.80;99.90;;;;;;5046775;28;20057;-74
2021/06/01 00:06:46;;;;;;;10.70;9.77;;;8.70;99.90;;;;;;5043882;28;20045;-74
2021/06/01 00:09:19;;;;;;;10.27;9.23;;;8.60;99.90;;;;;;5029879;28;20052;-74
2021/06/01 00:11:47;;;;;;;9.23;8.63;;;8.60;99.90;;;;;;5023619;28;20079;-73
2021/06/01 00:14:15;;;;;;;10.32;9.43;;;8.50;99.90;;;;;;5017717;28;20046;-74
2021/06/01 00:16:42;;;;;;;11.68;9.75;;;8.50;99.90;;;;;;5045569;28;20041;-73
2021/06/01 00:19:10;;;;;;;10.18;9.48;;;8.50;99.90;;;;;;5044657;28;20045;-73
2021/06/01 00:21:39;;;;;;;10.25;9.40;;;8.40;99.90;;;;;;5033995;28;20132;-73
2021/06/01 00:24:09;;;;;;;10.57;9.55;;;8.40;99.90;;;;;;5041487;28;20110;-73
2021/06/01 00:26:37;;;;;;;10.05;9.38;;;8.30;99.90;;;;;;5040494;28;20433;-73
2021/06/01 00:29:05;;;;;;;13.25;9.43;;;8.30;99.90;;;;;;5042352;28;20450;-74
2021/06/01 00:31:33;;;;;;;9.63;8.77;;;8.20;99.90;;;;;;5043720;28;20118;-73
2021/06/01 00:34:00;;;;;;;9.88;9.13;;;8.20;99.90;;;;;;5027542;28;20642;-73
2021/06/01 00:36:27;;;;;;;8.95;8.25;;;8.20;99.90;;;;;;5043762;28;20052;-73
2021/06/01 00:38:54;;;;;;;9.13;8.32;;;8.20;99.90;;;;;;5043147;28;20052;-73
2021/06/01 00:41:21;;;;;;;9.63;8.70;;;8.10;99.90;;;;;;5057757;28;20056;-73
2021/06/01 00:43:48;;;;;;;9.35;8.55;;;8.10;99.90;;;;;;5038537;28;20276;-73
2021/06/01 00:46:15;;;;;;;10.00;8.27;;;8.10;99.90;;;;;;5058249;28;20060;-73
2021/06/01 00:48:42;;;;;;;9.88;9.02;;;8.30;99.90;;;;;;5061588;28;20048;-73
2021/06/01 00:51:10;;;;;;;9.88;9.27;;;8.20;99.90;;;;;;5045187;28;20428;-73
2021/06/01 00:53:37;;;;;;;9.38;8.45;;;7.90;99.90;;;;;;5042260;28;20052;-73
2021/06/01 00:56:05;;;;;;;10.00;9.10;;;7.90;99.90;;;;;;5026958;28;20102;-73
2021/06/01 00:58:33;;;;;;;9.60;8.77;;;7.80;99.90;;;;;;5040054;28;20087;-73
2021/06/01 01:03:33;;;;;;;9.90;8.93;;;7.80;99.90;;;;;;5039832;28;20496;-73
2021/06/01 01:06:19;;;;;;;10.20;8.80;;;7.80;99.90;;;;;;5026102;28;20517;-73
2021/06/01 01:08:56;;;;;;;9.10;8.23;;;7.80;99.90;;;;;;5043494;28;20053;-74
2021/06/01 01:11:54;;;;;;;9.65;8.35;;;7.70;99.90;;;;;;5021854;28;20501;-73
2021/06/01 01:14:27;;;;;;;9.43;8.48;;;7.60;99.90;;;;;;5042987;28;20540;-73
2021/06/01 01:17:06;;;;;;;9.52;8.68;;;7.50;99.90;;;;;;5046211;28;20428;-74
2021/06/01 01:20:17;;;;;;;8.57;7.78;;;7.50;99.90;;;;;;5065230;28;20400;-73
2021/06/01 01:22:49;;;;;;;9.55;7.95;;;7.40;99.90;;;;;;5024103;28;20491;-73
2021/06/01 01:25:21;;;;;;;8.30;7.70;;;7.30;99.90;;;;;;5006782;28;20168;-73
2021/06/01 01:28:18;;;;;;;8.73;7.82;;;7.20;99.90;;;;;;5035015;28;20053;-73
2021/06/01 01:30:49;;;;;;;7.40;6.85;;;7.30;99.90;;;;;;5021656;28;20069;-73
2021/06/01 01:33:26;;;;;;;10.00;8.98;;;7.40;99.90;;;;;;5006584;28;20541;-73
2021/06/01 01:35:58;;;;;;;9.07;8.38;;;7.60;99.90;;;;;;5023066;28;20037;-73
2021/06/01 01:38:25;;;;;;;8.05;7.45;;;7.50;99.90;;;;;;5037231;28;20110;-73
2021/06/01 01:41:09;;;;;;;8.27;7.63;;;7.30;99.90;;;;;;5043623;28;20049;-73
2021/06/01 01:43:37;;;;;;;9.05;8.00;;;7.20;99.90;;;;;;5034445;28;20105;-72
2021/06/01 01:46:26;;;;;;;9.77;7.90;;;7.10;99.90;;;;;;5051822;28;20064;-72
2021/06/01 01:48:59;;;;;;;7.75;7.10;;;7.20;99.90;;;;;;5022972;28;20150;-73
2021/06/01 01:51:38;;;;;;;7.88;7.13;;;7.30;99.90;;;;;;5006530;28;20442;-73
2021/06/01 01:54:10;;;;;;;8.07;7.18;;;7.20;99.90;;;;;;5005961;28;20493;-73
2021/06/01 01:56:39;;;;;;;9.10;7.50;;;7.00;99.90;;;;;;4999248;28;20106;-73
2021/06/01 01:59:10;;;;;;;10.93;7.18;;;7.00;99.90;;;;;;5043528;28;20057;-72
2021/06/01 02:01:39;;;;;;;9.60;7.60;;;7.00;99.90;;;;;;5024323;28;20052;-73
2021/06/01 02:04:06;;;;;;;8.35;7.07;;;7.10;99.90;;;;;;5042633;28;20056;-73
2021/06/01 02:06:33;;;;;;;10.18;8.23;;;7.00;99.90;;;;;;5041317;28;20053;-73
2021/06/01 02:09:03;;;;;;;10.10;6.80;;;7.00;99.90;;;;;;5025774;28;20110;-72
2021/06/01 02:11:30;;;;;;;9.05;7.53;;;6.90;99.90;;;;;;5017677;28;20061;-73
2021/06/01 02:14:01;;;;;;;8.13;7.32;;;6.70;99.90;;;;;;5052491;28;20041;-73
2021/06/01 02:16:32;;;;;;;7.72;7.03;;;6.60;99.90;;;;;;5015658;28;20461;-73
2021/06/01 02:18:59;;;;;;;8.77;7.13;;;6.50;99.90;;;;;;5025949;28;20053;-73
2021/06/01 02:21:35;;;;;;;11.98;6.95;;;6.50;99.90;;;;;;5023357;28;20425;-73
2021/06/01 02:24:13;;;;;;;10.10;7.13;;;6.50;99.90;;;;;;5044042;28;20099;-74
2021/06/01 02:26:56;;;;;;;10.00;7.22;;;6.80;99.90;;;;;;5043740;28;20053;-73
2021/06/01 02:29:35;;;;;;;7.50;6.80;;;6.90;99.90;;;;;;5024892;28;20512;-73
2021/06/01 02:32:04;;;;;;;7.60;6.80;;;6.90;99.90;;;;;;5024902;28;20436;-73
2021/06/01 02:34:35;;;;;;;11.85;6.90;;;7.00;99.90;;;;;;5042342;28;20236;-73
2021/06/01 02:37:02;;;;;;;11.60;6.53;;;7.00;99.90;;;;;;5024996;28;20044;-73
2021/06/01 02:39:30;;;;;;;12.65;6.90;;;7.00;99.90;;;;;;5041367;28;20049;-73
2021/06/01 02:41:57;;;;;;;7.30;6.32;;;7.00;99.90;;;;;;5060666;28;20147;-73
2021/06/01 02:44:25;;;;;;;8.10;6.90;;;7.00;99.90;;;;;;5052711;28;20072;-73
2021/06/01 02:46:52;;;;;;;15.10;7.30;;;7.00;99.90;;;;;;5020810;28;20147;-73
2021/06/01 02:49:20;;;;;;;12.15;6.95;;;6.80;99.90;;;;;;5034929;28;20396;-73
2021/06/01 02:51:48;;;;;;;8.20;7.25;;;6.70;99.90;;;;;;5025999;28;20053;-73
2021/06/01 02:54:14;;;;;;;16.13;7.03;;;6.60;99.90;;;;;;5044022;28;20167;-73
2021/06/01 02:56:42;;;;;;;10.00;7.07;;;6.60;99.90;;;;;;5023565;28;20144;-73
2021/06/01 02:59:09;;;;;;;7.72;6.32;;;6.40;99.90;;;;;;5024286;28;20107;-73
2021/06/01 03:01:36;;;;;;;7.45;6.30;;;6.30;99.90;;;;;;5040436;28;20110;-73
2021/06/01 03:04:07;;;;;;;7.97;7.18;;;6.20;99.90;;;;;;5021038;28;20140;-73
2021/06/01 03:06:35;;;;;;;12.73;7.43;;;6.30;99.90;;;;;;5052666;28;20044;-73
2021/06/01 03:09:02;;;;;;;8.45;6.47;;;6.20;99.90;;;;;;5023731;28;20033;-74
2021/06/01 03:11:32;;;;;;;9.57;6.80;;;6.20;99.90;;;;;;5023913;28;20041;-73
2021/06/01 03:13:59;;;;;;;8.73;6.45;;;6.10;99.90;;;;;;5035970;28;20049;-72
2021/06/01 03:16:25;;;;;;;10.25;6.90;;;6.00;99.90;;;;;;5043701;28;20048;-73
2021/06/01 03:18:52;;;;;;;9.77;5.72;;;6.10;99.90;;;;;;5050340;28;20055;-73
2021/06/01 03:21:19;;;;;;;8.75;6.03;;;6.10;99.90;;;;;;5034486;28;20449;-73
2021/06/01 03:23:46;;;;;;;12.57;6.88;;;6.00;99.90;;;;;;5038476;28;20512;-73
2021/06/01 03:26:14;;;;;;;9.98;7.25;;;6.00;99.90;;;;;;5034665;28;20048;-73
2021/06/01 03:28:40;;;;;;;8.13;6.72;;;6.00;99.90;;;;;;5058030;28;20071;-73
2021/06/01 03:31:07;;;;;;;7.93;6.40;;;5.90;99.90;;;;;;5047952;28;20044;-73
2021/06/01 03:33:35;;;;;;;7.95;6.80;;;5.90;99.90;;;;;;5045702;28;20037;-73
2021/06/01 03:36:02;;;;;;;7.78;6.63;;;5.90;99.90;;;;;;5034915;28;20049;-73
2021/06/01 03:38:31;;;;;;;9.32;7.28;;;5.90;99.90;;;;;;5032727;28;20048;-73
2021/06/01 03:40:58;;;;;;;7.22;6.53;;;6.00;99.90;;;;;;5055652;28;20052;-73
2021/06/01 03:43:25;;;;;;;12.02;6.85;;;6.00;99.90;;;;;;5053798;28;20119;-73
2021/06/01 03:45:52;;;;;;;9.43;7.25;;;5.90;99.90;;;;;;5034291;28;20118;-73
2021/06/01 03:48:18;;;;;;;9.27;7.28;;;5.80;99.90;;;;;;5026326;28;20056;-73
2021/06/01 03:50:45;;;;;;;9.23;6.47;;;5.80;99.90;;;;;;5043656;28;20052;-73
2021/06/01 03:53:12;;;;;;;6.80;6.20;;;5.80;99.90;;;;;;5042259;28;20095;-73
2021/06/01 03:55:39;;;;;;;7.68;6.63;;;5.80;99.90;;;;;;5044445;28;20041;-73
2021/06/01 03:58:05;;;;;;;7.95;7.20;;;5.80;99.90;;;;;;5031674;28;20036;-73
2021/06/01 04:00:32;;;;;;;8.65;6.88;;;5.90;99.90;;;;;;5055557;28;20078;-73
2021/06/01 04:03:00;;;;;;;8.73;7.82;;;5.90;99.90;;;;;;5057616;28;20091;-73
2021/06/01 04:05:27;;;;;;;8.82;7.88;;;6.00;99.90;;;;;;5040994;28;20053;-73
2021/06/01 04:07:54;;;;;;;8.52;7.63;;;5.90;99.90;;;;;;5043276;28;20061;-73
2021/06/01 04:10:21;;;;;;;9.35;8.32;;;5.90;99.90;;;;;;5044343;28;20074;-74
2021/06/01 04:12:48;;;;;;;9.95;7.78;;;5.90;99.90;;;;;;5046803;28;20037;-73
2021/06/01 04:15:16;;;;;;;10.60;8.52;;;6.00;99.90;;;;;;5038373;28;20055;-73
2021/06/01 04:17:43;;;;;;;8.35;7.65;;;6.10;99.90;;;;;;5039313;28;20045;-73
2021/06/01 04:20:10;;;;;;;10.55;8.13;;;6.20;99.90;;;;;;5024996;28;20129;-74
2021/06/01 04:22:37;;;;;;;9.23;8.10;;;6.20;99.90;;;;;;5023675;28;20057;-74
2021/06/01 04:25:06;;;;;;;8.65;7.57;;;6.20;99.90;;;;;;5022976;28;20073;-73
2021/06/01 04:27:33;;;;;;;8.07;6.80;;;6.40;99.90;;;;;;5023193;28;20036;-73
2021/06/01 04:30:01;;;;;;;8.40;7.60;;;6.60;99.90;;;;;;5043419;28;20047;-73
2021/06/01 04:32:27;;;;;;;8.48;7.40;;;6.80;99.90;;;;;;5026433;28;20071;-73
2021/06/01 04:34:54;;;;;;;9.80;8.98;;;7.20;99.90;;;;;;5049202;28;20044;-73
2021/06/01 04:37:21;;;;;;;12.15;9.65;;;7.60;99.90;;;;;;5051237;28;20582;-73
2021/06/01 04:39:48;;;;;;;11.90;10.88;;;8.10;99.90;;;;;;5052488;28;20563;-73
2021/06/01 04:42:15;;;;;;;12.05;11.13;;;8.70;99.90;;;;;;5026026;28;20050;-73
2021/06/01 04:44:42;;;;;;;11.70;10.90;;;9.30;99.90;;;;;;5017690;28;20041;-73
2021/06/01 04:47:14;;;;;;;11.70;10.90;;;9.90;99.90;;;;;;5046825;28;20052;-73
2021/06/01 04:49:41;;;;;;;12.57;11.75;;;10.40;99.90;;;;;;5044245;28;20049;-73
2021/06/01 04:52:08;;;;;;;12.13;11.13;;;10.70;99.90;;;;;;5040426;28;20122;-74
2021/06/01 04:54:35;;;;;;;12.38;11.57;;;10.90;99.90;;;;;;5060404;28;20041;-74
2021/06/01 04:57:01;;;;;;;13.20;12.07;;;11.30;99.90;;;;;;5027660;28;20041;-73
2021/06/01 04:59:28;;;;;;;12.82;11.77;;;11.60;99.90;;;;;;5021273;28;20041;-73
2021/06/01 05:01:55;;;;;;;12.95;11.88;;;12.00;99.90;;;;;;5045524;28;20670;-74
2021/06/01 05:04:22;;;;;;;12.55;11.55;;;12.40;99.90;;;;;;5042513;28;20149;-73
2021/06/01 05:06:48;;;;;;;13.02;12.13;;;12.80;99.90;;;;;;5021800;28;20237;-74
2021/06/01 05:09:15;;;;;;;13.02;12.23;;;13.20;99.90;;;;;;5042799;28;20053;-73
2021/06/01 05:11:42;;;;;;;13.43;12.38;;;13.60;99.90;;;;;;5040012;28;20049;-74
2021/06/01 05:14:12;;;;;;;13.25;12.27;;;14.00;99.90;;;;;;5036231;28;20044;-74
2021/06/01 05:16:38;;;;;;;12.55;11.75;;;14.20;99.90;;;;;;5040880;28;20430;-73
2021/06/01 05:19:05;;;;;;;13.82;12.75;;;14.40;99.90;;;;;;5058988;28;20047;-73
2021/06/01 05:21:32;;;;;;;13.32;12.52;;;14.80;99.90;;;;;;5063291;28;20056;-73
2021/06/01 05:23:59;;;;;;;13.63;12.50;;;15.20;99.90;;;;;;5063005;28;21449;-73
2021/06/01 05:26:29;;;;;;;13.85;12.82;;;15.40;99.90;;;;;;5059283;28;20098;-74
2021/06/01 05:28:56;;;;;;;12.73;12.02;;;15.70;99.90;;;;;;5036523;28;20072;-74
2021/06/01 05:31:33;;;;;;;13.25;12.32;;;16.00;99.90;;;;;;5024919;28;20095;-74
2021/06/01 05:34:02;;;;;;;13.68;12.80;;;16.30;99.90;;;;;;5040606;28;20493;-74
2021/06/01 05:36:29;;;;;;;13.23;12.43;;;16.20;99.90;;;;;;5035473;28;20261;-73
2021/06/01 05:38:56;;;;;;;12.88;12.00;;;16.10;99.90;;;;;;5009471;28;20049;-74
2021/06/01 05:41:22;;;;;;;13.75;12.50;;;16.30;99.90;;;;;;5033684;28;20115;-73
2021/06/01 05:43:49;;;;;;;14.38;13.15;;;16.50;99.90;;;;;;5029064;28;20041;-73
2021/06/01 05:46:16;;;;;;;13.55;12.52;;;16.90;99.90;;;;;;5018753;28;20052;-74
2021/06/01 05:48:43;;;;;;;13.15;12.25;;;17.40;99.90;;;;;;5030414;28;20445;-74
2021/06/01 05:51:11;;;;;;;14.20;13.10;;;17.60;99.90;;;;;;5033807;28;20430;-74
2021/06/01 05:53:37;;;;;;;13.95;12.95;;;17.90;99.90;;;;;;5019160;28;20490;-74
2021/06/01 05:56:05;;;;;;;13.48;12.55;;;18.10;99.90;;;;;;4985395;28;20425;-74
2021/06/01 05:58:32;;;;;;;13.60;12.57;;;18.30;99.90;;;;;;5000039;28;20090;-74
2021/06/01 06:00:59;;;;;;;14.10;13.18;;;18.60;99.90;;;;;;5021021;28;20057;-74
2021/06/01 06:03:26;;;;;;;14.45;13.40;;;18.40;99.90;;;;;;5022892;28;20132;-74
2021/06/01 06:05:53;;;;;;;13.75;12.95;;;18.50;99.90;;;;;;5022347;28;20067;-73
2021/06/01 06:08:21;;;;;;;14.35;13.18;;;18.80;99.90;;;;;;5024527;28;20128;-74
2021/06/01 06:10:49;;;;;;;14.43;13.38;;;18.80;99.90;;;;;;5002199;28;20050;-73
2021/06/01 06:13:17;;;;;;;14.40;13.27;;;19.00;99.90;;;;;;5018085;28;20053;-73
2021/06/01 06:15:44;;;;;;;14.52;13.60;;;18.80;99.90;;;;;;5016166;28;20175;-74
2021/06/01 06:18:45;;;;;;;14.45;13.35;;;18.70;99.90;;;;;;4996602;28;20512;-73
2021/06/01 06:21:13;;;;;;;14.27;13.48;;;18.90;99.90;;;;;;5018838;28;20053;-72
2021/06/01 06:23:41;;;;;;;13.60;12.82;;;19.00;99.90;;;;;;4997690;28;20557;-74
2021/06/01 06:26:09;;;;;;;13.52;12.65;;;18.60;99.90;;;;;;5023081;28;20140;-74
2021/06/01 06:28:37;;;;;;;13.93;13.05;;;18.70;99.90;;;;;;5022309;28;20119;-73
2021/06/01 06:31:04;;;;;;;14.50;13.38;;;18.80;99.90;;;;;;5034410;28;20456;-72
2021/06/01 06:33:31;;;;;;;14.40;13.27;;;19.00;99.90;;;;;;5019235;28;20119;-73
2021/06/01 06:35:57;;;;;;;13.70;12.80;;;19.20;99.90;;;;;;5023183;28;20053;-74
2021/06/01 06:38:24;;;;;;;14.18;13.15;;;19.70;99.90;;;;;;5012921;28;20097;-73
2021/06/01 06:43:20;;;;;;;14.43;13.50;;;19.60;97.50;;;;;;5029867;28;20139;-74
2021/06/01 06:45:48;;;;;;;14.40;13.40;;;19.50;97.60;;;;;;5033193;28;20049;-73
2021/06/01 06:48:15;;;;;;;14.50;13.50;;;19.40;97.30;;;;;;5032623;28;20053;-73
2021/06/01 06:50:42;;;;;;;14.23;13.43;;;19.50;96.90;;;;;;5020923;28;20140;-74
2021/06/01 06:53:13;;;;;;;13.48;12.77;;;19.80;97.00;;;;;;5003356;28;20057;-73
2021/06/01 06:55:40;;;;;;;13.65;12.95;;;19.70;96.70;;;;;;5004482;28;20053;-73
2021/06/01 06:58:06;;;;;;;14.00;13.15;;;19.50;96.40;;;;;;4985043;28;20348;-73
2021/06/01 07:00:35;;;;;;;14.02;13.13;;;19.70;96.60;;;;;;5023881;28;20060;-73
2021/06/01 07:03:02;;;;;;;14.02;13.13;;;19.70;95.90;;;;;;5035394;28;20061;-74
2021/06/01 07:05:30;;;;;;;13.48;12.70;;;19.80;95.90;;;;;;5022725;28;20045;-74
2021/06/01 07:07:56;;;;;;;14.20;13.23;;;20.00;95.50;;;;;;5002068;28;20052;-74
2021/06/01 07:10:24;;;;;;;14.30;13.48;;;20.30;95.20;;;;;;5019060;28;20045;-74
2021/06/01 07:12:51;;;;;;;13.10;12.27;;;20.40;93.60;;;;;;4993949;28;20045;-75
2021/06/01 07:15:22;;;;;;;13.45;12.75;;;20.50;93.70;;;;;;5016250;28;20111;-74
2021/06/01 07:17:58;;;;;;;12.57;11.88;;;20.60;94.10;;;;;;5020469;28;20329;-75
2021/06/01 07:20:30;;;;;;;13.07;12.35;;;20.70;93.50;;;;;;5001571;28;20233;-74
2021/06/01 07:23:01;;;;;;;14.00;13.00;;;20.50;92.80;;;;;;5003515;28;20062;-74
2021/06/01 07:25:28;;;;;;;13.23;12.48;;;20.30;93.30;;;;;;5002936;28;20042;-74
2021/06/01 07:27:55;;;;;;;13.35;12.35;;;20.60;93.20;;;;;;4996579;28;20396;-74
2021/06/01 07:30:22;;;;;;;13.52;12.40;;;20.90;93.90;;;;;;5020132;28;20271;-75
2021/06/01 07:32:49;;;;;;;13.02;11.98;;;21.10;94.20;;;;;;5020648;28;20053;-75
2021/06/01 07:35:17;;;;;;;12.68;12.07;;;21.20;93.50;;;;;;5023049;28;20041;-74
2021/06/01 07:37:44;;;;;;;13.82;12.95;;;20.00;93.80;;;;;;5019409;28;20052;-75
2021/06/01 07:40:11;;;;;;;13.30;12.60;;;20.00;94.10;;;;;;5019752;28;20129;-75
2021/06/01 07:42:38;;;;;;;13.63;12.88;;;20.20;94.50;;;;;;5005217;28;20619;-75
2021/06/01 07:45:06;;;;;;;13.02;12.32;;;20.30;93.20;;;;;;5031931;28;20045;-75
2021/06/01 07:47:33;;;;;;;13.20;12.38;;;20.40;93.70;;;;;;5041436;28;20130;-75
2021/06/01 07:49:59;;;;;;;13.77;12.85;;;20.30;93.10;;;;;;5035245;28;20088;-75
2021/06/01 07:52:27;;;;;;;14.35;13.55;;;20.30;93.50;;;;;;5021459;28;20058;-74
2021/06/01 07:54:54;;;;;;;13.38;12.48;;;19.80;94.20;;;;;;5023402;28;20049;-75
2021/06/01 07:57:20;;;;;;;14.65;13.25;;;19.50;94.60;;;;;;5024874;28;20418;-75
2021/06/01 07:59:47;;;;;;;13.70;12.70;;;19.80;95.60;;;;;;5029398;28;20049;-75
2021/06/01 08:02:15;;;;;;;12.88;12.05;;;20.20;94.30;;;;;;5011140;28;20057;-76
2021/06/01 08:04:41;;;;;;;13.82;12.90;;;20.00;95.30;;;;;;5035230;28;20076;-76
2021/06/01 08:07:09;;;;;;;14.18;13.10;;;20.50;95.20;;;;;;4999095;28;20056;-75
2021/06/01 08:09:36;;;;;;;13.77;13.00;;;20.50;94.00;;;;;;5011118;28;20394;-74
2021/06/01 08:12:07;;;;;;;13.43;12.70;;;19.80;94.80;;;;;;5028612;28;20137;-75
2021/06/01 08:14:34;;;;;;;13.90;13.10;;;20.40;94.10;;;;;;5007224;28;20500;-76
2021/06/01 08:17:01;;;;;;;14.02;13.13;;;20.90;93.10;;;;;;5034374;28;20246;-76
2021/06/01 08:19:32;;;;;;;13.90;13.00;;;20.80;93.20;;;;;;5012358;28;20060;-76
2021/06/01 08:22:42;;;;;;;13.80;12.82;;;20.90;92.00;;;;;;5014422;28;20058;-75
2021/06/01 08:24:49;;;;;;;13.60;12.45;;;21.00;92.10;;;;;;5008445;28;20101;-76
2021/06/01 08:27:16;;;;;;;12.90;11.98;;;21.60;90.80;;;;;;4998357;28;20033;-76
2021/06/01 08:29:42;;;;;;;13.10;12.48;;;21.80;89.00;;;;;;5030051;28;20053;-77
2021/06/01 08:32:09;;;;;;;13.77;12.88;;;21.70;90.20;;;;;;5029090;28;20056;-75
2021/06/01 08:34:36;;;;;;;12.63;12.00;;;21.70;88.90;;;;;;5030426;28;20494;-76
2021/06/01 08:37:03;;;;;;;13.40;12.70;;;21.80;90.40;;;;;;4987221;28;20251;-78
2021/06/01 08:39:30;;;;;;;13.48;12.68;;;21.70;90.50;;;;;;5028866;28;20049;-79
2021/06/01 08:41:57;;;;;;;14.13;13.00;;;21.70;86.60;;;;;;5028300;28;20050;-76
2021/06/01 08:44:27;;;;;;;13.45;12.85;;;21.60;89.60;;;;;;5036259;28;20055;-76
2021/06/01 08:46:57;;;;;;;13.85;12.95;;;21.80;86.50;;;;;;5031796;28;20037;-75
2021/06/01 08:49:24;;;;;;;14.48;13.45;;;21.60;87.70;;;;;;5032256;28;20052;-76
2021/06/01 08:51:51;;;;;;;13.95;13.10;;;21.80;86.70;;;;;;5029756;28;20041;-75
2021/06/01 08:54:18;;;;;;;13.73;12.82;;;21.70;87.60;;;;;;5001911;28;20041;-76
2021/06/01 08:56:46;;;;;;;14.30;13.50;;;22.00;86.30;;;;;;5017289;28;20391;-76
2021/06/01 08:59:13;;;;;;;14.35;13.38;;;22.10;83.50;;;;;;5028559;28;20046;-77
2021/06/01 09:01:43;;;;;;;13.73;13.00;;;21.90;82.10;;;;;;5024230;28;20049;-76
2021/06/01 09:04:12;;;;;;;14.10;13.30;;;21.80;84.50;;;;;;5024468;28;20107;-75
2021/06/01 09:06:44;;;;;;;13.82;13.02;;;21.60;83.20;;;;;;5007423;28;20358;-76
2021/06/01 09:09:28;;;;;;;15.10;14.00;;;21.60;84.90;;;;;;5007873;28;20053;-76
2021/06/01 09:23:04;;;;;;;14.13;13.27;;;21.90;82.70;;;;;;5020143;28;20041;-75
2021/06/01 09:25:56;;;;;;;14.60;13.55;;;21.70;84.70;;;;;;5026806;28;20162;-76
2021/06/01 09:28:23;;;;;;;14.25;13.45;;;21.80;85.70;;;;;;5027136;28;20045;-76
2021/06/01 09:30:55;;;;;;;14.57;13.45;;;22.10;82.80;;;;;;5022114;28;20049;-76
2021/06/01 09:33:22;;;;;;;15.38;14.05;;;22.00;82.40;;;;;;4990519;28;20056;-76
2021/06/01 09:35:56;;;;;;;14.23;13.32;;;22.00;85.20;;;;;;5006208;28;20501;-74
2021/06/01 09:38:29;;;;;;;15.15;14.35;;;22.50;84.60;;;;;;4998324;28;20046;-74
2021/06/01 09:41:14;;;;;;;15.00;14.10;;;22.50;85.80;;;;;;5010949;28;20042;-74
2021/06/01 09:43:59;;;;;;;14.38;13.57;;;22.50;85.50;;;;;;5030187;28;20140;-75
2021/06/01 09:46:29;;;;;;;15.27;14.35;;;22.70;84.10;;;;;;5026547;28;20050;-74
2021/06/01 09:49:16;;;;;;;14.80;14.07;;;22.40;82.90;;;;;;5005008;28;20050;-74
2021/06/01 09:51:58;;;;;;;14.73;13.80;;;21.90;83.50;;;;;;5001562;28;20400;-74
2021/06/01 09:54:47;;;;;;;14.50;13.80;;;22.30;85.10;;;;;;5014115;28;20103;-76
2021/06/01 09:57:18;;;;;;;13.77;13.13;;;22.50;84.90;;;;;;5019977;28;20049;-75
2021/06/01 10:00:09;;;;;;;14.93;14.10;;;22.20;86.00;;;;;;5023981;28;20048;-73
2021/06/01 10:02:41;;;;;;;14.20;13.50;;;22.00;85.40;;;;;;5032121;28;20045;-74
2021/06/01 10:05:11;;;;;;;14.88;13.93;;;22.60;82.50;;;;;;4988425;28;20061;-75
2021/06/01 10:07:39;;;;;;;15.50;14.45;;;22.50;84.40;;;;;;4990072;28;20057;-73
2021/06/01 10:10:17;;;;;;;14.52;13.80;;;21.90;84.70;;;;;;4999632;28;20463;-75
2021/06/01 10:12:49;;;;;;;15.07;14.18;;;22.30;85.30;;;;;;5011577;28;20055;-75
2021/06/01 10:15:19;;;;;;;14.10;13.35;;;22.40;83.30;;;;;;5024360;28;20049;-74
2021/06/01 10:18:04;;;;;;;14.35;13.45;;;22.70;83.30;;;;;;5004602;28;20219;-75
2021/06/01 10:20:33;;;;;;;14.65;13.73;;;22.10;86.30;;;;;;4985006;28;20062;-75
2021/06/01 10:23:02;;;;;;;13.82;13.13;;;22.30;84.00;;;;;;5000794;28;20457;-75
2021/06/01 10:25:29;;;;;;;20.45;15.30;;;22.70;83.40;;;;;;4986012;28;20049;-74
2021/06/01 10:28:00;;;;;;;14.30;13.68;;;23.20;80.00;;;;;;5018464;28;20049;-75
2021/06/01 10:30:29;;;;;;;14.32;13.57;;;23.30;78.00;;;;;;5014235;28;20046;-74
2021/06/01 10:33:00;;;;;;;13.90;13.25;;;22.60;77.30;;;;;;5003592;28;20561;-74
2021/06/01 10:35:37;;;;;;;13.93;13.32;;;22.10;80.80;;;;;;5028219;28;20052;-75
2021/06/01 10:50:32;;;;;;;13.15;12.55;;;22.30;79.70;;;;;;5003783;28;20054;-74
2021/06/01 10:53:24;;;;;;;15.65;14.35;;;22.40;78.10;;;;;;5007359;28;20115;-76
2021/06/01 10:58:32;;;;;;;14.07;13.30;;;22.80;80.40;;;;;;5018573;28;20045;-75
2021/06/01 11:04:29;;;;;;;14.27;13.55;;;22.40;79.80;;;;;;5003923;28;20531;-75
2021/06/01 11:07:11;;;;;;;13.80;12.90;;;22.40;79.80;;;;;;4986943;28;20060;-74
2021/06/01 11:09:38;;;;;;;13.57;12.88;;;21.90;81.40;;;;;;5017544;28;20045;-74
2021/06/01 11:12:17;;;;;;;13.75;12.90;;;21.70;82.50;;;;;;5020646;28;20068;-74
2021/06/01 11:14:46;;;;;;;12.77;11.98;;;21.60;82.10;;;;;;5011112;28;20041;-74
2021/06/01 11:17:14;;;;;;;13.05;12.35;;;21.50;83.20;;;;;;5039938;28;20048;-75
2021/06/01 11:19:53;;;;;;;12.68;12.07;;;21.50;83.20;;;;;;5015040;28;20092;-75
2021/06/01 11:22:35;;;;;;;12.60;11.88;;;21.80;80.00;;;;;;4983848;28;20609;-75
2021/06/01 11:33:23;;;;;;;13.15;12.50;;;21.80;78.40;;;;;;5033393;28;20049;-74
2021/06/01 11:36:12;;;;;;;12.98;12.30;;;21.90;78.70;;;;;;5029756;28;20049;-76
2021/06/01 11:44:27;;;;;;;14.27;13.48;;;21.60;79.60;;;;;;5017409;28;20444;-73
2021/06/01 11:47:14;;;;;;;13.50;12.82;;;21.50;82.30;;;;;;5010138;28;20087;-75
2021/06/01 11:52:29;;;;;;;13.02;12.27;;;22.40;79.80;;;;;;5028902;28;20513;-75
2021/06/01 11:55:05;;;;;;;12.57;11.77;;;22.10;76.10;;;;;;5008189;28;20309;-75
2021/06/01 12:01:58;;;;;;;11.75;11.15;;;22.30;76.60;;;;;;5025053;28;20111;-74
2021/06/01 12:03:20;;;;;;;13.30;12.50;;;21.90;77.20;;;;;;5007510;28;20517;-75
2021/06/01 12:11:15;;;;;;;13.43;12.77;;;22.30;78.90;;;;;;5025405;28;20056;-74
2021/06/01 12:11:38;;;;;;;14.30;13.15;;;22.40;80.50;;;;;;5006267;28;20050;-76
2021/06/01 12:17:14;;;;;;;13.10;12.60;;;22.40;76.60;;;;;;5017427;28;20049;-77
2021/06/01 12:19:41;;;;;;;13.55;12.95;;;23.00;75.50;;;;;;5015835;28;20147;-77
2021/06/01 12:22:07;;;;;;;13.32;12.63;;;23.10;72.90;;;;;;5024262;28;20200;-76
2021/06/01 12:24:37;;;;;;;12.65;11.95;;;23.20;70.20;;;;;;4988494;28;20050;-75
2021/06/01 12:27:22;;;;;;;13.07;12.50;;;23.20;68.00;;;;;;5032313;28;20049;-76
2021/06/01 12:33:10;;;;;;;13.00;12.30;;;22.80;70.30;;;;;;5009726;28;20054;-76
2021/06/01 12:36:15;;;;;;;12.80;12.10;;;23.20;69.10;;;;;;4989233;28;20038;-76
2021/06/01 12:44:07;;;;;;;13.48;12.77;;;22.50;68.30;;;;;;5015790;28;20040;-75
2021/06/01 12:46:45;;;;;;;13.20;12.60;;;22.40;70.10;;;;;;5010652;28;20058;-76
2021/06/01 13:23:07;;;;;;;14.60;13.80;;;23.70;65.70;;;;;;5012032;28;20056;-79
2021/06/01 13:47:07;;;;;;;13.10;12.25;;;24.30;67.70;;;;;;5004136;28;20054;-76
2021/06/01 13:49:38;;;;;;;12.65;11.85;;;24.60;67.30;;;;;;4988445;28;20494;-76
2021/06/01 14:09:30;;;;;;;13.55;12.85;;;23.80;69.40;;;;;;5023862;28;20502;-76
2021/06/01 14:19:43;;;;;;;;;;;24.60;70.50;;;;;;5002780;28;20049;-77
2021/06/01 14:38:08;;;;;;;13.13;12.43;;;22.80;75.60;;;;;;5008248;28;20262;-75
2021/06/01 15:28:37;;;;;;;12.90;12.20;;;23.40;73.30;;;;;;5022888;28;20533;-76
2021/06/01 15:31:14;;;;;;;12.73;11.93;;;24.00;71.10;;;;;;5044898;28;20143;-77
2021/06/01 15:49:38;;;;;;;12.65;11.95;;;24.00;77.00;;;;;;5027787;28;20065;-76
2021/06/01 16:11:46;;;;;;;12.43;11.70;;;24.10;76.50;;;;;;5024885;28;20049;-76
2021/06/01 16:42:02;;;;;;;12.35;11.55;;;22.70;79.80;;;;;;5027797;28;20577;-76
2021/06/01 17:03:11;;;;;;;12.60;11.90;;;22.80;80.80;;;;;;5007324;28;20050;-76
2021/06/01 17:03:48;;;;;;;13.07;12.27;;;22.70;79.90;;;;;;5027228;28;20049;-76
2021/06/01 17:06:20;;;;;;;13.07;12.27;;;22.70;80.80;;;;;;5027261;28;20049;-77
2021/06/01 17:11:28;;;;;;;12.43;11.67;;;22.60;80.60;;;;;;5027997;28;20058;-75
2021/06/01 17:14:04;;;;;;;13.07;12.25;;;22.50;82.50;;;;;;5011128;28;20342;-76
2021/06/01 17:16:51;;;;;;;13.32;12.32;;;22.40;81.90;;;;;;5028184;28;20056;-75
2021/06/01 17:30:20;;;;;;;12.55;11.95;;;22.50;83.20;;;;;;5033339;28;20092;-76
2021/06/01 17:35:32;;;;;;;13.75;12.68;;;22.20;89.20;;;;;;5006718;28;20045;-75
2021/06/01 17:38:03;;;;;;;13.65;12.57;;;22.10;90.30;;;;;;4990004;28;20346;-76
2021/06/01 17:40:36;;;;;;;12.85;12.07;;;22.10;90.50;;;;;;4987754;28;20056;-76
2021/06/01 17:43:08;;;;;;;13.13;12.32;;;22.30;89.80;;;;;;5012339;28;20057;-77
2021/06/01 17:45:44;;;;;;;14.30;13.20;;;22.30;88.50;;;;;;5036375;28;20061;-75
2021/06/01 17:48:30;;;;;;;12.80;12.10;;;22.40;88.50;;;;;;5033673;28;20159;-75
2021/06/01 17:50:58;;;;;;;12.70;11.95;;;22.20;90.30;;;;;;4993578;28;20045;-74
2021/06/01 17:53:25;;;;;;;12.95;12.13;;;22.20;91.40;;;;;;5039513;28;20045;-75
2021/06/01 17:55:53;;;;;;;13.25;12.27;;;22.30;91.30;;;;;;5025998;28;20132;-76
2021/06/01 17:58:23;;;;;;;15.43;14.32;;;22.20;91.60;;;;;;5028784;28;20081;-74
2021/06/01 18:00:51;;;;;;;14.63;13.20;;;22.00;91.90;;;;;;5004965;28;20304;-76
2021/06/01 18:03:21;;;;;;;13.93;13.10;;;21.70;92.90;;;;;;5006538;28;20064;-76